^^
Station Historical Data
Daily Summary for February 28, 2017 Units:  English    Metric   Both
« Previous Day
Next Day »
Daily Weekly Monthly Yearly Custom
  High: Low: Average:
Temperature: 62.5 °F 37.1 °F 50.6 °F
Dew Point: 51.7 °F 33.1 °F 40.1 °F
Humidity: 88 % 38 % 70 %
Wind Speed: 11.1 mph 0.0 mph 1.3 mph
Wind Gust: 15.0 mph - -
Wind:- - SSW
Pressure: 30.39 in 29.96 in -
Precipitation: 0.00 in    
Historical Graphs
 
 
Tabular Data for February 28, 2017
Time Temperature Dew Point Pressure Wind Wind Speed Wind Gust Humidity Rainfall Rate (Hourly) solar Conditions
00:03 37.2 °F 33.1 °F 30.39 in Calm     85 % 0.00 in 0.0 W/m2 FEW
00:08 37.4 °F 33.3 °F 30.39 in Calm     85 % 0.00 in 0.0 W/m2 FEW
00:13 37.7 °F 33.6 °F 30.39 in Calm     85 % 0.00 in 0.0 W/m2 FEW
00:18 38.0 °F 33.9 °F 30.39 in Calm     85 % 0.00 in 0.0 W/m2 FEW
00:23 38.0 °F 33.9 °F 30.39 in Calm     85 % 0.00 in 0.0 W/m2 FEW
00:28 38.0 °F 33.6 °F 30.39 in Calm     84 % 0.00 in 0.0 W/m2 FEW
00:33 38.0 °F 33.6 °F 30.39 in Calm     84 % 0.00 in 0.0 W/m2 FEW
00:38 38.1 °F 34.0 °F 30.38 in Calm     85 % 0.00 in 0.0 W/m2 FEW
00:43 38.1 °F 33.7 °F 30.39 in Calm     84 % 0.00 in 0.0 W/m2 FEW
00:48 37.9 °F 33.5 °F 30.39 in Calm     84 % 0.00 in 0.0 W/m2 FEW
00:53 37.7 °F 33.3 °F 30.38 in Calm     84 % 0.00 in 0.0 W/m2 FEW
00:58 37.5 °F 33.1 °F 30.38 in Calm     84 % 0.00 in 0.0 W/m2 FEW
01:03 37.6 °F 33.5 °F 30.38 in Calm     85 % 0.00 in 0.0 W/m2 FEW
01:08 37.8 °F 33.7 °F 30.38 in Calm     85 % 0.00 in 0.0 W/m2 FEW
01:13 38.0 °F 33.9 °F 30.38 in Calm     85 % 0.00 in 0.0 W/m2 FEW
01:18 38.1 °F 34.0 °F 30.39 in Calm     85 % 0.00 in 0.0 W/m2 FEW
01:23 38.2 °F 33.8 °F 30.39 in Calm     84 % 0.00 in 0.0 W/m2 FEW
01:28 38.0 °F 33.6 °F 30.39 in Calm     84 % 0.00 in 0.0 W/m2 FEW
01:33 37.7 °F 33.6 °F 30.38 in Calm     85 % 0.00 in 0.0 W/m2 FEW
01:38 37.5 °F 33.4 °F 30.38 in Calm     85 % 0.00 in 0.0 W/m2 FEW
01:43 37.4 °F 33.3 °F 30.38 in Calm     85 % 0.00 in 0.0 W/m2 FEW
01:48 37.3 °F 33.2 °F 30.38 in Calm     85 % 0.00 in 0.0 W/m2 FEW
01:53 37.2 °F 33.4 °F 30.38 in Calm     86 % 0.00 in 0.0 W/m2 FEW
01:58 37.2 °F 33.4 °F 30.38 in Calm     86 % 0.00 in 0.0 W/m2 FEW
02:03 37.2 °F 33.4 °F 30.38 in Calm     86 % 0.00 in 0.0 W/m2 FEW
02:08 37.4 °F 33.6 °F 30.38 in Calm     86 % 0.00 in 0.0 W/m2 FEW
02:13 37.6 °F 33.8 °F 30.38 in Calm     86 % 0.00 in 0.0 W/m2 FEW
02:18 37.6 °F 33.8 °F 30.38 in Calm     86 % 0.00 in 0.0 W/m2 FEW
02:23 37.5 °F 33.7 °F 30.38 in Calm     86 % 0.00 in 0.0 W/m2 FEW
02:28 37.6 °F 33.8 °F 30.37 in Calm     86 % 0.00 in 0.0 W/m2 FEW
02:33 37.5 °F 33.7 °F 30.37 in Calm     86 % 0.00 in 0.0 W/m2 FEW
02:38 37.5 °F 33.7 °F 30.37 in Calm     86 % 0.00 in 0.0 W/m2 FEW
02:43 37.6 °F 33.8 °F 30.37 in Calm     86 % 0.00 in 0.0 W/m2 FEW
02:48 37.8 °F 34.0 °F 30.37 in Calm     86 % 0.00 in 0.0 W/m2 FEW
02:53 37.8 °F 34.0 °F 30.37 in Calm     86 % 0.00 in 0.0 W/m2 FEW
02:58 38.0 °F 34.2 °F 30.36 in Calm     86 % 0.00 in 0.0 W/m2 FEW
03:03 38.1 °F 34.3 °F 30.36 in Calm     86 % 0.00 in 0.0 W/m2 FEW
03:08 38.1 °F 34.3 °F 30.36 in Calm     86 % 0.00 in 0.0 W/m2 FEW
03:14 38.4 °F 34.6 °F 30.36 in Calm     86 % 0.00 in 0.0 W/m2 FEW
03:19 38.5 °F 34.7 °F 30.36 in Calm     86 % 0.00 in 0.0 W/m2 FEW
03:24 38.5 °F 34.4 °F 30.35 in Calm     85 % 0.00 in 0.0 W/m2 FEW
03:29 38.5 °F 34.4 °F 30.35 in Calm     85 % 0.00 in 0.0 W/m2 FEW
03:34 38.5 °F 34.4 °F 30.35 in Calm     85 % 0.00 in 0.0 W/m2 FEW
03:39 38.3 °F 34.2 °F 30.35 in Calm     85 % 0.00 in 0.0 W/m2 FEW
03:44 38.3 °F 34.2 °F 30.35 in Calm     85 % 0.00 in 0.0 W/m2 FEW
03:49 38.1 °F 34.0 °F 30.35 in Calm     85 % 0.00 in 0.0 W/m2 FEW
03:54 38.2 °F 34.1 °F 30.36 in Calm     85 % 0.00 in 0.0 W/m2 FEW
03:59 38.3 °F 34.2 °F 30.36 in Calm     85 % 0.00 in 0.0 W/m2 FEW
04:04 38.2 °F 34.1 °F 30.35 in Calm     85 % 0.00 in 0.0 W/m2 FEW
04:09 38.2 °F 34.4 °F 30.35 in Calm     86 % 0.00 in 0.0 W/m2 FEW
04:14 38.1 °F 34.3 °F 30.35 in Calm     86 % 0.00 in 0.0 W/m2 FEW
04:19 37.9 °F 34.1 °F 30.36 in Calm     86 % 0.00 in 0.0 W/m2 FEW
04:24 37.8 °F 34.0 °F 30.36 in Calm     86 % 0.00 in 0.0 W/m2 FEW
04:29 37.9 °F 34.1 °F 30.36 in Calm     86 % 0.00 in 0.0 W/m2 FEW
04:34 37.8 °F 34.0 °F 30.35 in Calm     86 % 0.00 in 0.0 W/m2 FEW
04:39 37.8 °F 34.0 °F 30.35 in Calm     86 % 0.00 in 0.0 W/m2 FEW
04:44 37.9 °F 34.1 °F 30.35 in Calm     86 % 0.00 in 0.0 W/m2 FEW
04:49 37.9 °F 34.1 °F 30.35 in Calm     86 % 0.00 in 0.0 W/m2 FEW
04:54 37.9 °F 34.1 °F 30.36 in Calm     86 % 0.00 in 0.0 W/m2 FEW
04:59 37.8 °F 34.0 °F 30.35 in Calm     86 % 0.00 in 0.0 W/m2 FEW
05:04 37.7 °F 33.9 °F 30.36 in Calm     86 % 0.00 in 0.0 W/m2 FEW
05:09 37.7 °F 33.9 °F 30.36 in Calm     86 % 0.00 in 0.0 W/m2 FEW
05:14 37.7 °F 34.2 °F 30.36 in Calm     87 % 0.00 in 0.0 W/m2 FEW
05:19 37.6 °F 34.1 °F 30.36 in Calm     87 % 0.00 in 0.0 W/m2 FEW
05:24 37.6 °F 34.1 °F 30.36 in Calm     87 % 0.00 in 0.0 W/m2 FEW
05:29 37.7 °F 34.2 °F 30.36 in Calm     87 % 0.00 in 0.0 W/m2 FEW
05:34 37.8 °F 34.3 °F 30.36 in Calm     87 % 0.00 in 0.0 W/m2 FEW
05:39 37.7 °F 34.2 °F 30.35 in Calm     87 % 0.00 in 0.0 W/m2 FEW
05:44 37.6 °F 34.1 °F 30.35 in Calm     87 % 0.00 in 0.0 W/m2 FEW
05:49 37.6 °F 34.1 °F 30.35 in Calm     87 % 0.00 in 0.0 W/m2 FEW
05:54 37.3 °F 33.8 °F 30.35 in Calm     87 % 0.00 in 0.0 W/m2 FEW
05:59 37.2 °F 33.7 °F 30.35 in Calm     87 % 0.00 in 0.0 W/m2 FEW
06:04 37.1 °F 33.6 °F 30.35 in Calm     87 % 0.00 in 0.0 W/m2 FEW
06:09 37.2 °F 33.7 °F 30.34 in Calm     87 % 0.00 in 0.0 W/m2 FEW
06:14 37.3 °F 34.1 °F 30.35 in Calm     88 % 0.00 in 0.0 W/m2 FEW
06:19 37.2 °F 34.0 °F 30.35 in Calm     88 % 0.00 in 0.0 W/m2 FEW
06:24 37.5 °F 34.3 °F 30.35 in Calm     88 % 0.00 in 0.0 W/m2 FEW
06:29 37.5 °F 34.3 °F 30.35 in Calm     88 % 0.00 in 0.0 W/m2 FEW
06:34 37.5 °F 34.3 °F 30.35 in Calm     88 % 0.00 in 0.0 W/m2 FEW
06:39 37.5 °F 34.3 °F 30.35 in Calm     88 % 0.00 in 0.0 W/m2 FEW
06:44 37.3 °F 33.8 °F 30.35 in Calm     87 % 0.00 in 0.0 W/m2 FEW
06:49 37.2 °F 33.7 °F 30.34 in Calm     87 % 0.00 in 7.0 W/m2 FEW
06:54 37.2 °F 34.0 °F 30.35 in Calm     88 % 0.00 in 12.0 W/m2 FEW
06:59 37.4 °F 34.2 °F 30.35 in Calm     88 % 0.00 in 19.0 W/m2 FEW
07:04 37.4 °F 33.9 °F 30.35 in Calm     87 % 0.00 in 30.0 W/m2 FEW
07:09 37.6 °F 34.4 °F 30.35 in Calm     88 % 0.00 in 35.0 W/m2 FEW
07:14 37.8 °F 34.3 °F 30.35 in Calm     87 % 0.00 in 39.0 W/m2 FEW
07:19 37.8 °F 34.3 °F 30.35 in Calm     87 % 0.00 in 39.0 W/m2 FEW
07:24 37.7 °F 34.2 °F 30.34 in Calm     87 % 0.00 in 42.0 W/m2 FEW
07:29 37.9 °F 34.4 °F 30.34 in Calm     87 % 0.00 in 46.0 W/m2 SCT
07:34 38.1 °F 34.6 °F 30.34 in Calm     87 % 0.00 in 56.0 W/m2 FEW
07:39 38.6 °F 34.8 °F 30.35 in Calm     86 % 0.00 in 67.0 W/m2 FEW
07:44 38.7 °F 34.9 °F 30.34 in Calm     86 % 0.00 in 79.0 W/m2 FEW
07:49 38.8 °F 35.0 °F 30.35 in Calm     86 % 0.00 in 93.0 W/m2 FEW
07:54 39.3 °F 35.4 °F 30.35 in Calm     86 % 0.00 in 70.0 W/m2 BKN
08:00 39.6 °F 35.5 °F 30.35 in Calm     85 % 0.00 in 141.0 W/m2 CLR
08:05 40.1 °F 36.0 °F 30.35 in Calm     85 % 0.00 in 135.0 W/m2 CLR
08:10 40.3 °F 35.8 °F 30.34 in West 1.4 mph 2.3 mph 84 % 0.00 in 105.0 W/m2 FEW
08:15 40.3 °F 35.8 °F 30.34 in West 1.9 mph 3.5 mph 84 % 0.00 in 130.0 W/m2 SCT
08:20 40.5 °F 35.7 °F 30.34 in West 1.5 mph 2.3 mph 83 % 0.00 in 163.0 W/m2 CLR
08:25 41.1 °F 36.3 °F 30.34 in West 1.1 mph 3.5 mph 83 % 0.00 in 225.0 W/m2 CLR
08:30 41.6 °F 36.8 °F 30.34 in WNW 2.5 mph 3.5 mph 83 % 0.00 in 299.0 W/m2 CLR
08:35 42.0 °F 36.6 °F 30.34 in WNW 2.1 mph 3.5 mph 81 % 0.00 in 320.0 W/m2 CLR
08:40 42.9 °F 37.5 °F 30.34 in WNW 1.4 mph 2.3 mph 81 % 0.00 in 339.0 W/m2 CLR
08:45 43.5 °F 37.4 °F 30.34 in WNW 1.3 mph 2.3 mph 79 % 0.00 in 357.0 W/m2 CLR
08:50 43.8 °F 37.4 °F 30.34 in WNW 1.1 mph 3.5 mph 78 % 0.00 in 373.0 W/m2 CLR
08:55 44.5 °F 37.7 °F 30.34 in Calm   1.2 mph 77 % 0.00 in 373.0 W/m2 CLR
08:56 44.6 °F 37.8 °F 30.34 in Calm   1.2 mph 77 % 0.00 in 364.0 W/m2 CLR
09:01 45.0 °F 37.2 °F 30.34 in Calm     74 % 0.00 in 392.0 W/m2 CLR
09:06 45.5 °F 37.0 °F 30.33 in WNW 0.5 mph 2.3 mph 72 % 0.00 in 403.0 W/m2 CLR
09:11 45.9 °F 37.0 °F 30.33 in Calm   1.2 mph 71 % 0.00 in 420.0 W/m2 CLR
09:16 46.2 °F 37.0 °F 30.33 in Calm     70 % 0.00 in 399.0 W/m2 CLR
09:21 46.7 °F 37.1 °F 30.33 in NW 0.5 mph 2.3 mph 69 % 0.00 in 381.0 W/m2 CLR
09:26 47.4 °F 37.4 °F 30.33 in Calm     68 % 0.00 in 385.0 W/m2 CLR
09:31 47.6 °F 36.8 °F 30.33 in Calm     66 % 0.00 in 496.0 W/m2 CLR
09:36 48.1 °F 37.3 °F 30.32 in Calm     66 % 0.00 in 510.0 W/m2 CLR
09:41 48.6 °F 37.7 °F 30.33 in NW 0.4 mph 1.2 mph 66 % 0.00 in 522.0 W/m2 CLR
09:46 49.0 °F 37.7 °F 30.31 in NW 1.8 mph 3.5 mph 65 % 0.00 in 534.0 W/m2 CLR
09:51 49.4 °F 37.7 °F 30.33 in Calm     64 % 0.00 in 548.0 W/m2 CLR
09:56 50.2 °F 38.5 °F 30.32 in NW 0.6 mph 3.5 mph 64 % 0.00 in 559.0 W/m2 CLR
10:01 50.8 °F 38.2 °F 30.32 in Calm     62 % 0.00 in 568.0 W/m2 CLR
10:06 51.2 °F 38.2 °F 30.31 in NNW 0.1 mph 3.5 mph 61 % 0.00 in 580.0 W/m2 CLR
10:11 51.9 °F 38.9 °F 30.32 in Calm     61 % 0.00 in 591.0 W/m2 CLR
10:13 52.0 °F 38.5 °F 30.32 in NNW 0.2 mph   60 % 0.00 in 594.0 W/m2 CLR
10:18 52.6 °F 38.7 °F 30.32 in North 1.2 mph 2.0 mph 59 % 0.00 in 603.0 W/m2 CLR
10:23 53.0 °F 38.6 °F 30.32 in NNE 2.0 mph 3.5 mph 58 % 0.00 in 522.0 W/m2 CLR
10:28 52.7 °F 37.4 °F 30.32 in Calm     56 % 0.00 in 628.0 W/m2 CLR
10:33 53.5 °F 38.6 °F 30.31 in Calm     57 % 0.00 in 635.0 W/m2 CLR
10:38 54.2 °F 38.8 °F 30.31 in NNW 0.2 mph 5.8 mph 56 % 0.00 in 640.0 W/m2 CLR
10:43 54.0 °F 38.2 °F 30.31 in ENE 0.1 mph 1.2 mph 55 % 0.00 in 596.0 W/m2 CLR
10:48 54.0 °F 38.2 °F 30.31 in East 0.5 mph 2.3 mph 55 % 0.00 in 650.0 W/m2 CLR
10:53 54.9 °F 38.1 °F 30.30 in NNE 0.1 mph 3.5 mph 53 % 0.00 in 601.0 W/m2 CLR
10:58 55.4 °F 38.5 °F 30.30 in NE 1.9 mph 4.6 mph 53 % 0.00 in 589.0 W/m2 CLR
11:03 55.2 °F 38.4 °F 30.30 in Calm     53 % 0.00 in 656.0 W/m2 CLR
11:08 55.4 °F 38.5 °F 30.30 in Calm     53 % 0.00 in 640.0 W/m2 CLR
11:09 55.5 °F 38.6 °F 30.29 in Calm     53 % 0.00 in 640.0 W/m2 CLR
11:14 55.7 °F 37.8 °F 30.29 in Calm     51 % 0.00 in 677.0 W/m2 CLR
11:19 56.4 °F 38.5 °F 30.28 in East 0.6 mph 3.5 mph 51 % 0.00 in 686.0 W/m2 CLR
11:24 56.6 °F 38.7 °F 30.28 in NE 0.2 mph 1.2 mph 51 % 0.00 in 682.0 W/m2 CLR
11:29 57.5 °F 40.0 °F 30.28 in NNE 3.3 mph 4.6 mph 52 % 0.00 in 652.0 W/m2 CLR
11:34 57.9 °F 39.9 °F 30.27 in Calm     51 % 0.00 in 657.0 W/m2 CLR
11:39 58.2 °F 40.1 °F 30.28 in Calm     51 % 0.00 in 643.0 W/m2 CLR
11:44 58.1 °F 38.0 °F 30.28 in WNW 0.2 mph 2.3 mph 47 % 0.00 in 654.0 W/m2 CLR
11:49 58.7 °F 39.0 °F 30.28 in Calm     48 % 0.00 in 687.0 W/m2 CLR
11:54 59.3 °F 38.5 °F 30.27 in North 0.3 mph 4.6 mph 46 % 0.00 in 654.0 W/m2 CLR
11:59 59.4 °F 38.0 °F 30.27 in South 1.4 mph 3.5 mph 45 % 0.00 in 689.0 W/m2 CLR
12:04 59.8 °F 38.4 °F 30.27 in ESE 1.2 mph 4.6 mph 45 % 0.00 in 693.0 W/m2 CLR
12:09 59.4 °F 38.6 °F 30.26 in SE 0.1 mph 2.3 mph 46 % 0.00 in 668.0 W/m2 CLR
12:14 59.6 °F 39.9 °F 30.26 in NNE 0.1 mph   48 % 0.00 in 656.0 W/m2 CLR
12:19 60.3 °F 38.3 °F 30.26 in Calm     44 % 0.00 in 638.0 W/m2 CLR
12:24 59.8 °F 39.0 °F 30.25 in Calm   2.3 mph 46 % 0.00 in 612.0 W/m2 CLR
12:29 60.5 °F 39.0 °F 30.25 in Calm     45 % 0.00 in 633.0 W/m2 CLR
12:34 61.3 °F 38.6 °F 30.25 in SW 1.5 mph 6.0 mph 43 % 0.00 in 626.0 W/m2 CLR
12:39 60.9 °F 37.0 °F 30.25 in SSW 3.2 mph 6.0 mph 41 % 0.00 in 659.0 W/m2 CLR
12:44 60.7 °F 37.5 °F 30.24 in Calm     42 % 0.00 in 652.0 W/m2 CLR
12:49 60.8 °F 37.5 °F 30.23 in Calm     42 % 0.00 in 496.0 W/m2 CLR
12:54 61.5 °F 37.6 °F 30.22 in NW 1.9 mph 4.0 mph 41 % 0.00 in 568.0 W/m2 CLR
12:59 61.5 °F 37.6 °F 30.22 in Calm     41 % 0.00 in 519.0 W/m2 CLR
13:04 62.0 °F 38.6 °F 30.21 in WNW 0.2 mph 3.0 mph 42 % 0.00 in 619.0 W/m2 CLR
13:09 62.5 °F 37.8 °F 30.21 in SSW 4.3 mph 5.8 mph 40 % 0.00 in 592.0 W/m2 CLR
13:14 62.5 °F 36.5 °F 30.21 in South 6.6 mph 7.0 mph 38 % 0.00 in 464.0 W/m2 CLR
13:19 61.9 °F 36.0 °F 30.21 in SW 4.2 mph 6.9 mph 38 % 0.00 in 392.0 W/m2 FEW
13:24 61.9 °F 36.7 °F 30.20 in SSW 6.1 mph 6.9 mph 39 % 0.00 in 360.0 W/m2 SCT
13:29 62.0 °F 36.1 °F 30.20 in SW 7.0 mph 9.2 mph 38 % 0.00 in 338.0 W/m2 SCT
13:34 61.8 °F 35.9 °F 30.20 in WSW 3.2 mph 8.1 mph 38 % 0.00 in 334.0 W/m2 SCT
13:39 62.1 °F 36.8 °F 30.19 in SW 3.5 mph 6.9 mph 39 % 0.00 in 309.0 W/m2 SCT
13:44 62.0 °F 36.7 °F 30.19 in SSW 5.3 mph 5.3 mph 39 % 0.00 in 279.0 W/m2 SCT
13:49 61.9 °F 36.7 °F 30.19 in WSW 0.2 mph 3.5 mph 39 % 0.00 in 274.0 W/m2 SCT
13:55 61.9 °F 36.7 °F 30.18 in Calm   3.0 mph 39 % 0.00 in 278.0 W/m2 BKN
14:00 61.7 °F 38.4 °F 30.18 in South 1.7 mph 7.0 mph 42 % 0.00 in 267.0 W/m2 SCT
14:05 61.8 °F 39.1 °F 30.18 in SE 2.4 mph 3.5 mph 43 % 0.00 in 237.0 W/m2 BKN
14:10 61.8 °F 39.1 °F 30.18 in South 5.3 mph 7.0 mph 43 % 0.00 in 218.0 W/m2 BKN
14:15 61.6 °F 38.9 °F 30.17 in South 5.5 mph 8.0 mph 43 % 0.00 in 202.0 W/m2 BKN
14:20 61.4 °F 38.7 °F 30.17 in SSW 6.3 mph 9.2 mph 43 % 0.00 in 200.0 W/m2 BKN
14:25 61.2 °F 39.1 °F 30.17 in South 0.6 mph 2.3 mph 44 % 0.00 in 195.0 W/m2 BKN
14:30 61.3 °F 39.2 °F 30.17 in South 0.2 mph 2.3 mph 44 % 0.00 in 190.0 W/m2 BKN
14:35 61.3 °F 39.8 °F 30.17 in South 3.8 mph 5.8 mph 45 % 0.00 in 190.0 W/m2 BKN
14:40 61.4 °F 39.3 °F 30.16 in ESE 4.1 mph 6.9 mph 44 % 0.00 in 197.0 W/m2 BKN
14:45 61.1 °F 39.6 °F 30.16 in SSE 1.6 mph 4.6 mph 45 % 0.00 in 169.0 W/m2 BKN
14:50 61.5 °F 39.9 °F 30.16 in South 6.2 mph 9.2 mph 45 % 0.00 in 148.0 W/m2 BKN
14:55 61.5 °F 39.9 °F 30.16 in South 3.0 mph 4.6 mph 45 % 0.00 in 153.0 W/m2 BKN
15:00 61.4 °F 40.4 °F 30.16 in South 0.8 mph 3.0 mph 46 % 0.00 in 105.0 W/m2 OVC
15:05 61.3 °F 41.4 °F 30.15 in ESE 1.3 mph 3.5 mph 48 % 0.00 in 91.0 W/m2 OVC
15:10 61.3 °F 40.9 °F 30.15 in South 2.2 mph 4.6 mph 47 % 0.00 in 100.0 W/m2 OVC
15:15 61.4 °F 41.5 °F 30.15 in SSE 0.4 mph 2.3 mph 48 % 0.00 in 91.0 W/m2 OVC
15:20 61.1 °F 40.7 °F 30.14 in Calm     47 % 0.00 in 95.0 W/m2 OVC
15:25 61.2 °F 41.9 °F 30.14 in Calm     49 % 0.00 in 98.0 W/m2 BKN
15:30 61.3 °F 41.4 °F 30.14 in SSE 0.9 mph 3.5 mph 48 % 0.00 in 102.0 W/m2 BKN
15:35 61.5 °F 42.2 °F 30.14 in Calm   1.2 mph 49 % 0.00 in 88.0 W/m2 OVC
15:40 61.6 °F 41.7 °F 30.14 in South 1.5 mph 5.8 mph 48 % 0.00 in 76.0 W/m2 OVC
15:45 61.6 °F 41.7 °F 30.13 in South 2.0 mph 4.6 mph 48 % 0.00 in 90.0 W/m2 BKN
15:50 61.5 °F 42.2 °F 30.13 in South 4.3 mph 8.1 mph 49 % 0.00 in 84.0 W/m2 BKN
15:55 61.5 °F 42.2 °F 30.13 in SSW 3.2 mph 6.9 mph 49 % 0.00 in 69.0 W/m2 OVC
16:00 61.5 °F 42.7 °F 30.13 in SSW 3.9 mph 6.0 mph 50 % 0.00 in 63.0 W/m2 OVC
16:05 61.4 °F 42.6 °F 30.13 in SSW 5.0 mph 5.8 mph 50 % 0.00 in 76.0 W/m2 BKN
16:10 61.4 °F 42.6 °F 30.13 in SSW 4.0 mph 5.8 mph 50 % 0.00 in 77.0 W/m2 BKN
16:15 61.4 °F 43.1 °F 30.13 in South 3.0 mph 4.6 mph 51 % 0.00 in 77.0 W/m2 BKN
16:20 61.4 °F 43.1 °F 30.13 in South 4.7 mph 8.1 mph 51 % 0.00 in 83.0 W/m2 BKN
16:25 61.3 °F 43.5 °F 30.13 in South 0.3 mph 1.2 mph 52 % 0.00 in 54.0 W/m2 BKN
16:30 61.1 °F 43.3 °F 30.12 in South 0.5 mph 2.3 mph 52 % 0.00 in 47.0 W/m2 OVC
16:35 61.0 °F 43.7 °F 30.13 in South 0.4 mph 3.5 mph 53 % 0.00 in 47.0 W/m2 OVC
16:40 61.0 °F 43.7 °F 30.13 in South 2.0 mph 2.3 mph 53 % 0.00 in 51.0 W/m2 BKN
16:45 61.0 °F 43.7 °F 30.14 in South 2.1 mph 5.0 mph 53 % 0.00 in 37.0 W/m2 OVC
16:50 60.9 °F 44.1 °F 30.13 in South 0.4 mph 2.3 mph 54 % 0.00 in 33.0 W/m2 OVC
16:55 60.8 °F 44.5 °F 30.13 in SSE 0.9 mph 3.5 mph 55 % 0.00 in 28.0 W/m2 OVC
17:00 60.8 °F 44.5 °F 30.13 in South 2.9 mph 5.0 mph 55 % 0.00 in 28.0 W/m2 OVC
17:05 60.7 °F 44.4 °F 30.13 in South 1.2 mph 3.5 mph 55 % 0.00 in 25.0 W/m2 OVC
17:10 60.5 °F 44.7 °F 30.13 in South 3.1 mph 3.5 mph 56 % 0.00 in 16.0 W/m2 OVC
17:15 60.4 °F 44.6 °F 30.13 in South 2.3 mph 3.0 mph 56 % 0.00 in 12.0 W/m2 OVC
17:20 60.2 °F 44.9 °F 30.13 in SSE 2.3 mph 4.6 mph 57 % 0.00 in 9.0 W/m2 OVC
17:25 60.1 °F 44.8 °F 30.12 in SSE 0.3 mph 5.8 mph 57 % 0.00 in 7.0 W/m2 OVC
17:30 60.0 °F 45.2 °F 30.12 in SSE 1.6 mph 3.5 mph 58 % 0.00 in 5.0 W/m2 OVC
17:36 59.8 °F 45.0 °F 30.11 in South 2.5 mph 4.0 mph 58 % 0.00 in 0.0 W/m2 OVC
17:41 59.7 °F 45.3 °F 30.12 in South 1.0 mph 4.0 mph 59 % 0.00 in 0.0 W/m2 OVC
17:46 59.6 °F 45.2 °F 30.12 in Calm     59 % 0.00 in 0.0 W/m2 OVC
17:51 59.5 °F 45.6 °F 30.12 in South 0.6 mph 4.0 mph 60 % 0.00 in 0.0 W/m2 CLR
17:56 59.3 °F 45.4 °F 30.11 in South 0.5 mph 3.5 mph 60 % 0.00 in 0.0 W/m2 CLR
18:01 59.2 °F 45.8 °F 30.11 in SSE 1.0 mph 4.0 mph 61 % 0.00 in 0.0 W/m2 CLR
18:06 59.3 °F 45.8 °F 30.12 in SSW 1.9 mph 5.8 mph 61 % 0.00 in 0.0 W/m2 CLR
18:11 59.3 °F 46.3 °F 30.11 in South 0.7 mph 3.5 mph 62 % 0.00 in 0.0 W/m2 CLR
18:16 59.3 °F 46.3 °F 30.12 in South 2.5 mph 4.0 mph 62 % 0.00 in 0.0 W/m2 CLR
18:21 59.4 °F 46.8 °F 30.11 in South 3.6 mph 5.8 mph 63 % 0.00 in 0.0 W/m2 CLR
18:26 59.4 °F 47.2 °F 30.11 in South 1.8 mph 6.0 mph 64 % 0.00 in 0.0 W/m2 CLR
18:31 59.4 °F 47.6 °F 30.11 in SSW 6.1 mph 9.2 mph 65 % 0.00 in 0.0 W/m2 CLR
18:36 59.4 °F 47.6 °F 30.11 in SSW 4.9 mph 6.9 mph 65 % 0.00 in 0.0 W/m2 CLR
18:41 59.5 °F 47.3 °F 30.12 in SSW 8.0 mph 11.5 mph 64 % 0.00 in 0.0 W/m2 CLR
18:46 59.7 °F 47.5 °F 30.12 in WSW 11.1 mph 13.8 mph 64 % 0.00 in 0.0 W/m2 CLR
18:51 59.8 °F 47.6 °F 30.12 in SW 8.6 mph 15.0 mph 64 % 0.00 in 0.0 W/m2 CLR
18:56 59.8 °F 48.0 °F 30.11 in South 7.2 mph 11.5 mph 65 % 0.00 in 0.0 W/m2 CLR
19:01 59.7 °F 48.3 °F 30.10 in SSW 8.0 mph 11.5 mph 66 % 0.00 in 0.0 W/m2 CLR
19:06 59.5 °F 48.1 °F 30.11 in SSW 4.1 mph 5.8 mph 66 % 0.00 in 0.0 W/m2 CLR
19:11 59.4 °F 48.4 °F 30.11 in SSW 4.2 mph 6.0 mph 67 % 0.00 in 0.0 W/m2 CLR
19:16 59.2 °F 48.2 °F 30.11 in SSW 3.0 mph 6.9 mph 67 % 0.00 in 0.0 W/m2 CLR
19:21 59.1 °F 48.5 °F 30.11 in SSW 0.6 mph 3.0 mph 68 % 0.00 in 0.0 W/m2 CLR
19:26 59.0 °F 48.4 °F 30.11 in SW 7.6 mph 9.0 mph 68 % 0.00 in 0.0 W/m2 CLR
19:31 59.1 °F 48.9 °F 30.10 in SSW 4.0 mph 8.1 mph 69 % 0.00 in 0.0 W/m2 CLR
19:36 59.0 °F 48.8 °F 30.10 in SW 4.4 mph 5.8 mph 69 % 0.00 in 0.0 W/m2 CLR
19:41 58.9 °F 48.7 °F 30.10 in SSW 3.1 mph 5.0 mph 69 % 0.00 in 0.0 W/m2 CLR
19:46 58.8 °F 49.0 °F 30.10 in SSW 2.3 mph 3.5 mph 70 % 0.00 in 0.0 W/m2 CLR
19:51 58.6 °F 48.8 °F 30.10 in South 2.5 mph 3.5 mph 70 % 0.00 in 0.0 W/m2 CLR
19:56 58.4 °F 48.7 °F 30.09 in South 2.0 mph 3.5 mph 70 % 0.00 in 0.0 W/m2 CLR
20:01 58.4 °F 49.0 °F 30.09 in South 2.4 mph 4.6 mph 71 % 0.00 in 0.0 W/m2 CLR
20:06 58.3 °F 48.9 °F 30.08 in South 6.2 mph 8.1 mph 71 % 0.00 in 0.0 W/m2 CLR
20:11 58.4 °F 49.0 °F 30.08 in South 3.4 mph 6.9 mph 71 % 0.00 in 0.0 W/m2 CLR
20:16 58.4 °F 49.0 °F 30.08 in SSW 5.8 mph 8.1 mph 71 % 0.00 in 0.0 W/m2 CLR
20:21 58.3 °F 48.9 °F 30.08 in South 5.1 mph 5.1 mph 71 % 0.00 in 0.0 W/m2 CLR
20:26 58.2 °F 48.8 °F 30.08 in South 2.8 mph 4.0 mph 71 % 0.00 in 0.0 W/m2 CLR
20:32 58.0 °F 48.6 °F 30.08 in South 1.7 mph 4.6 mph 71 % 0.00 in 0.0 W/m2 CLR
20:37 57.9 °F 48.9 °F 30.08 in South 0.1 mph 3.5 mph 72 % 0.00 in 0.0 W/m2 CLR
20:42 57.8 °F 48.8 °F 30.07 in South 1.9 mph 3.5 mph 72 % 0.00 in 0.0 W/m2 CLR
20:47 57.7 °F 48.7 °F 30.07 in South 0.4 mph 3.5 mph 72 % 0.00 in 0.0 W/m2 CLR
20:52 57.5 °F 48.9 °F 30.07 in Calm     73 % 0.00 in 0.0 W/m2 CLR
20:57 57.4 °F 48.8 °F 30.06 in Calm     73 % 0.00 in 0.0 W/m2 CLR
21:02 57.4 °F 48.8 °F 30.06 in Calm     73 % 0.00 in 0.0 W/m2 CLR
21:07 57.2 °F 49.0 °F 30.06 in South 0.4 mph 2.3 mph 74 % 0.00 in 0.0 W/m2 CLR
21:12 57.1 °F 48.9 °F 30.06 in Calm     74 % 0.00 in 0.0 W/m2 CLR
21:17 57.0 °F 48.8 °F 30.06 in South 0.7 mph 2.3 mph 74 % 0.00 in 0.0 W/m2 CLR
21:22 56.9 °F 49.1 °F 30.06 in Calm     75 % 0.00 in 0.0 W/m2 CLR
21:27 56.9 °F 49.1 °F 30.05 in South 0.4 mph 1.2 mph 75 % 0.00 in 0.0 W/m2 CLR
21:32 56.8 °F 49.0 °F 30.05 in South 0.4 mph 1.2 mph 75 % 0.00 in 0.0 W/m2 CLR
21:37 56.6 °F 49.1 °F 30.05 in Calm     76 % 0.00 in 0.0 W/m2 CLR
21:42 56.5 °F 49.0 °F 30.05 in Calm     76 % 0.00 in 0.0 W/m2 CLR
21:47 56.4 °F 48.9 °F 30.04 in SSW 1.8 mph 4.6 mph 76 % 0.00 in 0.0 W/m2 CLR
21:52 56.3 °F 49.2 °F 30.04 in Calm     77 % 0.00 in 0.0 W/m2 CLR
21:57 56.4 °F 49.3 °F 30.03 in SSE 0.2 mph 2.3 mph 77 % 0.00 in 0.0 W/m2 CLR
22:02 56.4 °F 49.3 °F 30.03 in Calm     77 % 0.00 in 0.0 W/m2 CLR
22:07 56.2 °F 49.4 °F 30.03 in Calm     78 % 0.00 in 0.0 W/m2 CLR
22:08 56.2 °F 49.4 °F 30.03 in South 0.9 mph 3.5 mph 78 % 0.00 in 0.0 W/m2 CLR
22:13 56.3 °F 49.5 °F 30.03 in Calm   1.2 mph 78 % 0.00 in 0.0 W/m2 CLR
22:18 56.3 °F 49.5 °F 30.02 in SSW 3.0 mph 3.5 mph 78 % 0.00 in 0.0 W/m2 CLR
22:23 56.4 °F 50.0 °F 30.02 in South 4.0 mph 7.0 mph 79 % 0.00 in 0.0 W/m2 CLR
22:28 56.6 °F 50.2 °F 30.01 in South 4.1 mph 8.0 mph 79 % 0.00 in 0.0 W/m2 CLR
22:33 56.7 °F 50.3 °F 30.01 in SSW 4.5 mph 8.0 mph 79 % 0.00 in 0.0 W/m2 CLR
22:43 56.7 °F 50.3 °F 30.00 in SSW 2.5 mph 5.8 mph 79 % 0.00 in 0.0 W/m2 CLR
22:48 56.6 °F 50.2 °F 30.00 in South 4.5 mph 6.9 mph 79 % 0.00 in 0.0 W/m2 CLR
22:53 56.5 °F 50.4 °F 30.00 in SSE 2.7 mph 5.0 mph 80 % 0.00 in 0.0 W/m2 CLR
22:58 56.4 °F 50.3 °F 29.99 in SSW 3.2 mph 4.6 mph 80 % 0.00 in 0.0 W/m2 CLR
23:03 56.4 °F 50.6 °F 29.99 in SSW 1.2 mph 3.0 mph 81 % 0.00 in 0.0 W/m2 CLR
23:08 56.4 °F 50.6 °F 29.99 in South 4.1 mph 7.0 mph 81 % 0.00 in 0.0 W/m2 CLR
23:13 56.5 °F 50.7 °F 29.98 in South 5.1 mph 10.4 mph 81 % 0.00 in 0.0 W/m2 CLR
23:18 56.5 °F 51.1 °F 29.98 in South 5.4 mph 8.1 mph 82 % 0.00 in 0.0 W/m2 CLR
23:23 56.5 °F 51.1 °F 29.98 in South 1.3 mph 3.5 mph 82 % 0.00 in 0.0 W/m2 CLR
23:28 56.5 °F 51.1 °F 29.98 in South 1.0 mph 5.0 mph 82 % 0.00 in 0.0 W/m2 CLR
23:33 56.5 °F 51.4 °F 29.97 in SSW 0.2 mph 2.3 mph 83 % 0.00 in 0.0 W/m2 CLR
23:38 56.4 °F 51.3 °F 29.97 in SW 0.5 mph 2.3 mph 83 % 0.00 in 0.0 W/m2 CLR
23:43 56.5 °F 51.4 °F 29.97 in Calm     83 % 0.00 in 0.0 W/m2 CLR
23:48 56.5 °F 51.4 °F 29.97 in Calm     83 % 0.00 in 0.0 W/m2 CLR
23:53 56.5 °F 51.7 °F 29.96 in SSW 0.3 mph 1.0 mph 84 % 0.00 in 0.0 W/m2 CLR
23:58 56.5 °F 51.7 °F 29.96 in SSW 0.1 mph 3.5 mph 84 % 0.00 in 0.0 W/m2 CLR
Air Products Campus Weather
Compliments of Weather Underground - 3.5 mb